sensor_id;sensor_type;location;lat;lon;timestamp;temperature;humidity
11214;DHT22;5664;48.606;13.456;2024-01-06T00:00:28;17.30;93.90
11214;DHT22;5664;48.606;13.456;2024-01-06T00:02:53;17.20;94.00
11214;DHT22;5664;48.606;13.456;2024-01-06T00:05:19;17.20;94.00
11214;DHT22;5664;48.606;13.456;2024-01-06T00:07:44;17.20;94.00
11214;DHT22;5664;48.606;13.456;2024-01-06T00:10:10;17.20;94.00
11214;DHT22;5664;48.606;13.456;2024-01-06T00:12:35;17.20;94.10
11214;DHT22;5664;48.606;13.456;2024-01-06T00:15:01;17.10;94.10
11214;DHT22;5664;48.606;13.456;2024-01-06T00:17:26;17.10;94.20
11214;DHT22;5664;48.606;13.456;2024-01-06T00:19:52;17.10;94.20
11214;DHT22;5664;48.606;13.456;2024-01-06T00:22:17;17.10;94.30
11214;DHT22;5664;48.606;13.456;2024-01-06T00:24:43;17.50;94.90
11214;DHT22;5664;48.606;13.456;2024-01-06T00:27:09;17.10;94.70
11214;DHT22;5664;48.606;13.456;2024-01-06T00:29:34;17.00;94.80
11214;DHT22;5664;48.606;13.456;2024-01-06T00:32:00;17.00;94.80
11214;DHT22;5664;48.606;13.456;2024-01-06T00:34:25;17.00;94.80
11214;DHT22;5664;48.606;13.456;2024-01-06T00:36:51;17.00;94.70
11214;DHT22;5664;48.606;13.456;2024-01-06T00:39:16;17.00;94.70
11214;DHT22;5664;48.606;13.456;2024-01-06T00:41:42;16.90;94.80
11214;DHT22;5664;48.606;13.456;2024-01-06T00:44:07;17.00;94.90
11214;DHT22;5664;48.606;13.456;2024-01-06T00:46:33;16.90;94.90
11214;DHT22;5664;48.606;13.456;2024-01-06T00:48:58;16.90;94.90
11214;DHT22;5664;48.606;13.456;2024-01-06T00:51:24;16.90;95.00
11214;DHT22;5664;48.606;13.456;2024-01-06T00:53:49;16.90;95.00
11214;DHT22;5664;48.606;13.456;2024-01-06T00:56:15;17.40;95.10
11214;DHT22;5664;48.606;13.456;2024-01-06T00:58:41;16.90;95.10
11214;DHT22;5664;48.606;13.456;2024-01-06T01:01:06;16.90;95.20
11214;DHT22;5664;48.606;13.456;2024-01-06T01:03:32;16.90;95.30
11214;DHT22;5664;48.606;13.456;2024-01-06T01:05:57;16.90;95.30
11214;DHT22;5664;48.606;13.456;2024-01-06T01:08:23;16.80;95.50
11214;DHT22;5664;48.606;13.456;2024-01-06T01:10:48;16.80;95.50
11214;DHT22;5664;48.606;13.456;2024-01-06T01:13:14;16.80;95.60
11214;DHT22;5664;48.606;13.456;2024-01-06T01:15:39;16.70;95.60
11214;DHT22;5664;48.606;13.456;2024-01-06T01:18:05;16.70;96.10
11214;DHT22;5664;48.606;13.456;2024-01-06T01:20:30;16.70;95.80
11214;DHT22;5664;48.606;13.456;2024-01-06T01:22:56;16.70;95.90
11214;DHT22;5664;48.606;13.456;2024-01-06T01:25:21;16.70;95.90
11214;DHT22;5664;48.606;13.456;2024-01-06T01:27:47;16.70;95.90
11214;DHT22;5664;48.606;13.456;2024-01-06T01:30:12;16.70;96.70
11214;DHT22;5664;48.606;13.456;2024-01-06T01:32:39;16.60;96.90
11214;DHT22;5664;48.606;13.456;2024-01-06T01:35:04;16.60;96.90
11214;DHT22;5664;48.606;13.456;2024-01-06T01:37:30;16.60;97.00
11214;DHT22;5664;48.606;13.456;2024-01-06T01:39:56;16.60;97.10
11214;DHT22;5664;48.606;13.456;2024-01-06T01:42:22;16.60;97.00
11214;DHT22;5664;48.606;13.456;2024-01-06T01:44:47;16.60;95.70
11214;DHT22;5664;48.606;13.456;2024-01-06T01:47:13;16.60;95.30
11214;DHT22;5664;48.606;13.456;2024-01-06T01:49:44;16.60;95.10
11214;DHT22;5664;48.606;13.456;2024-01-06T01:52:10;16.50;95.00
11214;DHT22;5664;48.606;13.456;2024-01-06T01:54:36;16.50;95.00
11214;DHT22;5664;48.606;13.456;2024-01-06T01:57:02;16.50;95.00
11214;DHT22;5664;48.606;13.456;2024-01-06T01:59:27;16.50;94.80
11214;DHT22;5664;48.606;13.456;2024-01-06T02:01:53;16.50;95.00
11214;DHT22;5664;48.606;13.456;2024-01-06T02:04:18;16.50;95.00
11214;DHT22;5664;48.606;13.456;2024-01-06T02:06:44;16.40;94.90
11214;DHT22;5664;48.606;13.456;2024-01-06T02:09:09;16.40;95.00
11214;DHT22;5664;48.606;13.456;2024-01-06T02:11:35;16.40;95.00
11214;DHT22;5664;48.606;13.456;2024-01-06T02:14:00;16.40;95.00
11214;DHT22;5664;48.606;13.456;2024-01-06T02:16:26;16.40;95.10
11214;DHT22;5664;48.606;13.456;2024-01-06T02:18:52;16.40;95.00
11214;DHT22;5664;48.606;13.456;2024-01-06T02:21:17;16.40;95.10
11214;DHT22;5664;48.606;13.456;2024-01-06T02:23:43;16.40;95.10
11214;DHT22;5664;48.606;13.456;2024-01-06T02:26:10;16.40;95.10
11214;DHT22;5664;48.606;13.456;2024-01-06T02:28:36;16.30;95.20
11214;DHT22;5664;48.606;13.456;2024-01-06T02:31:02;16.30;95.30
11214;DHT22;5664;48.606;13.456;2024-01-06T02:33:27;16.30;95.20
11214;DHT22;5664;48.606;13.456;2024-01-06T02:35:53;16.30;95.20
11214;DHT22;5664;48.606;13.456;2024-01-06T02:38:18;16.20;95.20
11214;DHT22;5664;48.606;13.456;2024-01-06T02:40:44;16.30;95.30
11214;DHT22;5664;48.606;13.456;2024-01-06T02:43:09;16.20;95.30
11214;DHT22;5664;48.606;13.456;2024-01-06T02:45:35;16.30;95.30
11214;DHT22;5664;48.606;13.456;2024-01-06T02:48:01;16.20;95.30
11214;DHT22;5664;48.606;13.456;2024-01-06T02:50:26;16.20;95.30
11214;DHT22;5664;48.606;13.456;2024-01-06T02:52:51;16.20;95.30
11214;DHT22;5664;48.606;13.456;2024-01-06T02:55:17;16.30;95.40
11214;DHT22;5664;48.606;13.456;2024-01-06T02:57:42;16.10;95.80
11214;DHT22;5664;48.606;13.456;2024-01-06T03:00:08;16.20;95.70
11214;DHT22;5664;48.606;13.456;2024-01-06T03:02:34;16.20;95.70
11214;DHT22;5664;48.606;13.456;2024-01-06T03:05:01;16.20;95.80
11214;DHT22;5664;48.606;13.456;2024-01-06T03:07:26;16.10;95.80
11214;DHT22;5664;48.606;13.456;2024-01-06T03:09:52;16.10;95.80
11214;DHT22;5664;48.606;13.456;2024-01-06T03:12:17;16.10;95.60
11214;DHT22;5664;48.606;13.456;2024-01-06T03:14:43;16.10;95.60
11214;DHT22;5664;48.606;13.456;2024-01-06T03:17:08;16.10;95.80
11214;DHT22;5664;48.606;13.456;2024-01-06T03:19:36;16.10;95.70
11214;DHT22;5664;48.606;13.456;2024-01-06T03:22:01;16.10;95.60
11214;DHT22;5664;48.606;13.456;2024-01-06T03:24:27;16.10;95.70
11214;DHT22;5664;48.606;13.456;2024-01-06T03:26:52;16.10;95.50
11214;DHT22;5664;48.606;13.456;2024-01-06T03:29:18;16.00;95.40
11214;DHT22;5664;48.606;13.456;2024-01-06T03:31:43;16.00;95.40
11214;DHT22;5664;48.606;13.456;2024-01-06T03:34:09;16.00;95.40
11214;DHT22;5664;48.606;13.456;2024-01-06T03:36:36;16.00;95.40
11214;DHT22;5664;48.606;13.456;2024-01-06T03:39:02;16.00;95.30
11214;DHT22;5664;48.606;13.456;2024-01-06T03:41:27;16.00;95.30
11214;DHT22;5664;48.606;13.456;2024-01-06T03:43:53;16.00;95.20
11214;DHT22;5664;48.606;13.456;2024-01-06T03:46:18;16.10;95.20
11214;DHT22;5664;48.606;13.456;2024-01-06T03:48:44;15.90;95.20
11214;DHT22;5664;48.606;13.456;2024-01-06T03:51:10;15.90;95.20
11214;DHT22;5664;48.606;13.456;2024-01-06T03:53:35;15.90;95.10
11214;DHT22;5664;48.606;13.456;2024-01-06T03:56:02;15.90;95.10
11214;DHT22;5664;48.606;13.456;2024-01-06T03:58:28;15.90;95.10
11214;DHT22;5664;48.606;13.456;2024-01-06T04:00:53;15.90;95.20
11214;DHT22;5664;48.606;13.456;2024-01-06T04:03:19;15.80;97.10
11214;DHT22;5664;48.606;13.456;2024-01-06T04:05:44;15.90;96.90
11214;DHT22;5664;48.606;13.456;2024-01-06T04:08:09;15.80;96.40
11214;DHT22;5664;48.606;13.456;2024-01-06T04:10:35;15.80;96.20
11214;DHT22;5664;48.606;13.456;2024-01-06T04:13:00;15.80;96.00
11214;DHT22;5664;48.606;13.456;2024-01-06T04:15:26;15.80;95.80
11214;DHT22;5664;48.606;13.456;2024-01-06T04:17:51;15.80;95.50
11214;DHT22;5664;48.606;13.456;2024-01-06T04:20:17;15.80;95.30
11214;DHT22;5664;48.606;13.456;2024-01-06T04:22:43;15.80;95.20
11214;DHT22;5664;48.606;13.456;2024-01-06T04:25:10;15.80;95.10
11214;DHT22;5664;48.606;13.456;2024-01-06T04:27:35;15.80;95.10
11214;DHT22;5664;48.606;13.456;2024-01-06T04:30:01;15.80;95.10
11214;DHT22;5664;48.606;13.456;2024-01-06T04:32:27;15.70;95.10
11214;DHT22;5664;48.606;13.456;2024-01-06T04:34:52;15.70;95.10
11214;DHT22;5664;48.606;13.456;2024-01-06T04:37:18;15.70;95.10
11214;DHT22;5664;48.606;13.456;2024-01-06T04:39:43;15.80;95.10
11214;DHT22;5664;48.606;13.456;2024-01-06T04:42:09;15.80;95.10
11214;DHT22;5664;48.606;13.456;2024-01-06T04:44:34;15.70;95.20
11214;DHT22;5664;48.606;13.456;2024-01-06T04:47:00;15.70;95.10
11214;DHT22;5664;48.606;13.456;2024-01-06T04:49:25;15.70;95.20
11214;DHT22;5664;48.606;13.456;2024-01-06T04:51:51;15.70;95.20
11214;DHT22;5664;48.606;13.456;2024-01-06T04:54:16;15.60;95.20
11214;DHT22;5664;48.606;13.456;2024-01-06T04:56:42;15.60;96.30
11214;DHT22;5664;48.606;13.456;2024-01-06T04:59:07;15.60;95.30
11214;DHT22;5664;48.606;13.456;2024-01-06T05:01:33;15.60;95.30
11214;DHT22;5664;48.606;13.456;2024-01-06T05:03:58;15.60;95.30
11214;DHT22;5664;48.606;13.456;2024-01-06T05:06:24;15.60;95.40
11214;DHT22;5664;48.606;13.456;2024-01-06T05:08:50;15.60;95.40
11214;DHT22;5664;48.606;13.456;2024-01-06T05:11:15;15.60;95.50
11214;DHT22;5664;48.606;13.456;2024-01-06T05:13:41;15.60;95.50
11214;DHT22;5664;48.606;13.456;2024-01-06T05:16:07;15.60;95.50
11214;DHT22;5664;48.606;13.456;2024-01-06T05:18:33;15.60;95.50
11214;DHT22;5664;48.606;13.456;2024-01-06T05:20:58;15.50;95.50
11214;DHT22;5664;48.606;13.456;2024-01-06T05:23:24;15.50;95.50
11214;DHT22;5664;48.606;13.456;2024-01-06T05:25:49;15.50;95.50
11214;DHT22;5664;48.606;13.456;2024-01-06T05:28:15;15.50;95.50
11214;DHT22;5664;48.606;13.456;2024-01-06T05:30:40;15.50;95.50
11214;DHT22;5664;48.606;13.456;2024-01-06T05:33:08;15.50;95.60
11214;DHT22;5664;48.606;13.456;2024-01-06T05:35:35;15.50;95.60
11214;DHT22;5664;48.606;13.456;2024-01-06T05:38:00;15.50;95.60
11214;DHT22;5664;48.606;13.456;2024-01-06T05:40:26;15.50;95.70
11214;DHT22;5664;48.606;13.456;2024-01-06T05:42:51;15.50;95.80
11214;DHT22;5664;48.606;13.456;2024-01-06T05:45:21;15.50;95.80
11214;DHT22;5664;48.606;13.456;2024-01-06T05:47:46;15.50;95.80
11214;DHT22;5664;48.606;13.456;2024-01-06T05:50:11;15.50;96.90
11214;DHT22;5664;48.606;13.456;2024-01-06T05:52:40;15.40;95.80
11214;DHT22;5664;48.606;13.456;2024-01-06T05:55:05;15.40;95.80
11214;DHT22;5664;48.606;13.456;2024-01-06T05:57:31;15.40;95.90
11214;DHT22;5664;48.606;13.456;2024-01-06T05:59:56;15.40;95.90
11214;DHT22;5664;48.606;13.456;2024-01-06T06:02:22;15.40;96.00
11214;DHT22;5664;48.606;13.456;2024-01-06T06:04:47;15.40;96.10
11214;DHT22;5664;48.606;13.456;2024-01-06T06:07:13;15.40;96.20
11214;DHT22;5664;48.606;13.456;2024-01-06T06:09:38;15.40;96.10
11214;DHT22;5664;48.606;13.456;2024-01-06T06:12:05;15.30;96.10
11214;DHT22;5664;48.606;13.456;2024-01-06T06:14:31;15.40;96.20
11214;DHT22;5664;48.606;13.456;2024-01-06T06:16:56;15.30;95.80
11214;DHT22;5664;48.606;13.456;2024-01-06T06:19:22;15.30;95.70
11214;DHT22;5664;48.606;13.456;2024-01-06T06:21:47;15.30;95.60
11214;DHT22;5664;48.606;13.456;2024-01-06T06:24:13;15.30;95.50
11214;DHT22;5664;48.606;13.456;2024-01-06T06:26:38;15.20;95.60
11214;DHT22;5664;48.606;13.456;2024-01-06T06:29:04;15.20;95.50
11214;DHT22;5664;48.606;13.456;2024-01-06T06:31:29;15.30;95.60
11214;DHT22;5664;48.606;13.456;2024-01-06T06:33:55;15.30;95.60
11214;DHT22;5664;48.606;13.456;2024-01-06T06:36:20;15.30;95.70
11214;DHT22;5664;48.606;13.456;2024-01-06T06:38:46;15.20;95.70
11214;DHT22;5664;48.606;13.456;2024-01-06T06:41:11;15.20;97.00
11214;DHT22;5664;48.606;13.456;2024-01-06T06:43:37;15.20;95.80
11214;DHT22;5664;48.606;13.456;2024-01-06T06:46:03;15.30;95.90
11214;DHT22;5664;48.606;13.456;2024-01-06T06:48:28;15.20;95.80
11214;DHT22;5664;48.606;13.456;2024-01-06T06:50:54;15.20;95.90
11214;DHT22;5664;48.606;13.456;2024-01-06T06:53:19;15.30;96.00
11214;DHT22;5664;48.606;13.456;2024-01-06T06:55:45;15.20;96.00
11214;DHT22;5664;48.606;13.456;2024-01-06T06:58:10;15.20;96.10
11214;DHT22;5664;48.606;13.456;2024-01-06T07:00:36;15.20;96.10
11214;DHT22;5664;48.606;13.456;2024-01-06T07:03:02;15.20;96.00
11214;DHT22;5664;48.606;13.456;2024-01-06T07:05:27;15.10;96.00
11214;DHT22;5664;48.606;13.456;2024-01-06T07:07:54;15.10;96.00
11214;DHT22;5664;48.606;13.456;2024-01-06T07:10:19;15.20;96.20
11214;DHT22;5664;48.606;13.456;2024-01-06T07:12:45;15.10;97.70
11214;DHT22;5664;48.606;13.456;2024-01-06T07:15:10;15.10;96.60
11214;DHT22;5664;48.606;13.456;2024-01-06T07:17:39;15.20;96.00
11214;DHT22;5664;48.606;13.456;2024-01-06T07:20:05;15.10;95.80
11214;DHT22;5664;48.606;13.456;2024-01-06T07:22:32;15.10;95.80
11214;DHT22;5664;48.606;13.456;2024-01-06T07:24:59;15.10;95.80
11214;DHT22;5664;48.606;13.456;2024-01-06T07:27:25;15.10;95.80
11214;DHT22;5664;48.606;13.456;2024-01-06T07:29:50;15.10;95.80
11214;DHT22;5664;48.606;13.456;2024-01-06T07:32:16;15.00;95.80
11214;DHT22;5664;48.606;13.456;2024-01-06T07:34:41;15.10;97.00
11214;DHT22;5664;48.606;13.456;2024-01-06T07:37:08;15.10;95.80
11214;DHT22;5664;48.606;13.456;2024-01-06T07:39:34;15.10;95.90
11214;DHT22;5664;48.606;13.456;2024-01-06T07:41:59;15.10;95.90
11214;DHT22;5664;48.606;13.456;2024-01-06T07:44:25;15.10;95.90
11214;DHT22;5664;48.606;13.456;2024-01-06T07:46:51;15.00;95.90
11214;DHT22;5664;48.606;13.456;2024-01-06T07:49:16;15.00;95.90
11214;DHT22;5664;48.606;13.456;2024-01-06T07:51:42;15.00;95.90
11214;DHT22;5664;48.606;13.456;2024-01-06T07:54:07;15.10;96.10
11214;DHT22;5664;48.606;13.456;2024-01-06T07:56:34;15.00;96.00
11214;DHT22;5664;48.606;13.456;2024-01-06T07:59:00;15.00;96.00
11214;DHT22;5664;48.606;13.456;2024-01-06T08:01:26;15.00;96.00
11214;DHT22;5664;48.606;13.456;2024-01-06T08:03:51;15.00;96.00
11214;DHT22;5664;48.606;13.456;2024-01-06T08:06:17;15.00;96.10
11214;DHT22;5664;48.606;13.456;2024-01-06T08:08:42;15.00;96.00
11214;DHT22;5664;48.606;13.456;2024-01-06T08:11:08;15.00;96.00
11214;DHT22;5664;48.606;13.456;2024-01-06T08:13:33;15.00;95.90
11214;DHT22;5664;48.606;13.456;2024-01-06T08:15:59;15.00;96.20
11214;DHT22;5664;48.606;13.456;2024-01-06T08:18:25;15.00;95.80
11214;DHT22;5664;48.606;13.456;2024-01-06T08:20:50;15.00;95.80
11214;DHT22;5664;48.606;13.456;2024-01-06T08:23:16;15.00;95.80
11214;DHT22;5664;48.606;13.456;2024-01-06T08:25:44;15.00;97.10
11214;DHT22;5664;48.606;13.456;2024-01-06T08:28:11;14.90;96.00
11214;DHT22;5664;48.606;13.456;2024-01-06T08:30:36;15.00;95.90
11214;DHT22;5664;48.606;13.456;2024-01-06T08:33:02;15.00;95.90
11214;DHT22;5664;48.606;13.456;2024-01-06T08:35:27;14.90;95.90
11214;DHT22;5664;48.606;13.456;2024-01-06T08:37:53;15.00;95.90
11214;DHT22;5664;48.606;13.456;2024-01-06T08:40:18;14.90;95.90
11214;DHT22;5664;48.606;13.456;2024-01-06T08:42:44;15.00;95.90
11214;DHT22;5664;48.606;13.456;2024-01-06T08:45:09;15.00;96.00
11214;DHT22;5664;48.606;13.456;2024-01-06T08:47:35;15.00;96.30
11214;DHT22;5664;48.606;13.456;2024-01-06T08:50:00;15.00;96.80
11214;DHT22;5664;48.606;13.456;2024-01-06T08:52:26;15.10;97.10
11214;DHT22;5664;48.606;13.456;2024-01-06T08:54:51;15.20;97.40
11214;DHT22;5664;48.606;13.456;2024-01-06T08:57:17;15.20;97.40
11214;DHT22;5664;48.606;13.456;2024-01-06T08:59:43;15.30;97.40
11214;DHT22;5664;48.606;13.456;2024-01-06T09:02:10;15.40;97.60
11214;DHT22;5664;48.606;13.456;2024-01-06T09:04:36;15.50;97.70
11214;DHT22;5664;48.606;13.456;2024-01-06T09:07:01;15.60;97.50
11214;DHT22;5664;48.606;13.456;2024-01-06T09:09:30;15.60;97.50
11214;DHT22;5664;48.606;13.456;2024-01-06T09:11:55;15.70;97.40
11214;DHT22;5664;48.606;13.456;2024-01-06T09:14:21;15.70;97.30
11214;DHT22;5664;48.606;13.456;2024-01-06T09:16:46;15.80;97.40
11214;DHT22;5664;48.606;13.456;2024-01-06T09:19:12;15.80;97.70
11214;DHT22;5664;48.606;13.456;2024-01-06T09:21:37;15.90;97.30
11214;DHT22;5664;48.606;13.456;2024-01-06T09:24:03;15.90;97.30
11214;DHT22;5664;48.606;13.456;2024-01-06T09:26:31;16.00;97.20
11214;DHT22;5664;48.606;13.456;2024-01-06T09:28:57;16.00;97.00
11214;DHT22;5664;48.606;13.456;2024-01-06T09:31:22;16.00;97.00
11214;DHT22;5664;48.606;13.456;2024-01-06T09:33:49;16.10;97.00
11214;DHT22;5664;48.606;13.456;2024-01-06T09:36:15;16.10;96.90
11214;DHT22;5664;48.606;13.456;2024-01-06T09:38:40;16.20;96.90
11214;DHT22;5664;48.606;13.456;2024-01-06T09:41:06;16.20;96.80
11214;DHT22;5664;48.606;13.456;2024-01-06T09:43:32;16.20;96.70
11214;DHT22;5664;48.606;13.456;2024-01-06T09:46:02;16.20;96.70
11214;DHT22;5664;48.606;13.456;2024-01-06T09:48:30;16.30;96.60
11214;DHT22;5664;48.606;13.456;2024-01-06T09:51:00;16.30;96.50
11214;DHT22;5664;48.606;13.456;2024-01-06T09:53:28;16.30;96.50
11214;DHT22;5664;48.606;13.456;2024-01-06T09:55:54;16.40;96.40
11214;DHT22;5664;48.606;13.456;2024-01-06T09:58:20;16.40;96.30
11214;DHT22;5664;48.606;13.456;2024-01-06T10:00:48;16.40;96.30
11214;DHT22;5664;48.606;13.456;2024-01-06T10:03:14;16.40;97.50
11214;DHT22;5664;48.606;13.456;2024-01-06T10:05:40;16.50;96.40
11214;DHT22;5664;48.606;13.456;2024-01-06T10:08:05;16.50;96.30
11214;DHT22;5664;48.606;13.456;2024-01-06T10:10:33;16.50;96.20
11214;DHT22;5664;48.606;13.456;2024-01-06T10:12:59;16.60;96.10
11214;DHT22;5664;48.606;13.456;2024-01-06T10:15:25;16.70;96.10
11214;DHT22;5664;48.606;13.456;2024-01-06T10:17:53;16.70;95.60
11214;DHT22;5664;48.606;13.456;2024-01-06T10:20:19;16.80;95.30
11214;DHT22;5664;48.606;13.456;2024-01-06T10:22:45;16.80;95.20
11214;DHT22;5664;48.606;13.456;2024-01-06T10:25:11;16.90;95.20
11214;DHT22;5664;48.606;13.456;2024-01-06T10:27:42;17.00;95.20
11214;DHT22;5664;48.606;13.456;2024-01-06T10:30:08;17.10;95.00
11214;DHT22;5664;48.606;13.456;2024-01-06T10:32:35;17.10;94.80
11214;DHT22;5664;48.606;13.456;2024-01-06T10:35:01;17.20;94.80
11214;DHT22;5664;48.606;13.456;2024-01-06T10:37:28;17.20;94.30
11214;DHT22;5664;48.606;13.456;2024-01-06T10:40:10;17.30;94.40
11214;DHT22;5664;48.606;13.456;2024-01-06T10:42:36;17.30;94.30
11214;DHT22;5664;48.606;13.456;2024-01-06T10:45:08;17.40;94.30
11214;DHT22;5664;48.606;13.456;2024-01-06T10:47:38;17.40;94.20
11214;DHT22;5664;48.606;13.456;2024-01-06T10:50:03;17.40;94.10
11214;DHT22;5664;48.606;13.456;2024-01-06T10:52:29;17.50;94.10
11214;DHT22;5664;48.606;13.456;2024-01-06T10:54:55;17.50;94.10
11214;DHT22;5664;48.606;13.456;2024-01-06T10:57:21;17.60;94.00
11214;DHT22;5664;48.606;13.456;2024-01-06T10:59:48;17.60;94.00
11214;DHT22;5664;48.606;13.456;2024-01-06T11:02:15;17.60;93.80
11214;DHT22;5664;48.606;13.456;2024-01-06T11:04:45;17.50;89.70
11214;DHT22;5664;48.606;13.456;2024-01-06T11:07:11;17.40;91.20
11214;DHT22;5664;48.606;13.456;2024-01-06T11:09:37;17.40;92.50
11214;DHT22;5664;48.606;13.456;2024-01-06T11:12:04;17.40;92.90
11214;DHT22;5664;48.606;13.456;2024-01-06T11:14:36;17.50;93.20
11214;DHT22;5664;48.606;13.456;2024-01-06T11:17:03;17.50;93.20
11214;DHT22;5664;48.606;13.456;2024-01-06T11:24:47;17.70;93.30
11214;DHT22;5664;48.606;13.456;2024-01-06T11:27:17;17.70;93.30
11214;DHT22;5664;48.606;13.456;2024-01-06T11:29:43;17.70;93.30
11214;DHT22;5664;48.606;13.456;2024-01-06T11:34:54;17.80;93.30
11214;DHT22;5664;48.606;13.456;2024-01-06T11:37:25;17.90;93.30
11214;DHT22;5664;48.606;13.456;2024-01-06T11:39:51;17.90;93.70
11214;DHT22;5664;48.606;13.456;2024-01-06T11:42:16;17.90;93.40
11214;DHT22;5664;48.606;13.456;2024-01-06T11:44:45;17.90;94.90
11214;DHT22;5664;48.606;13.456;2024-01-06T11:47:14;18.00;93.70
11214;DHT22;5664;48.606;13.456;2024-01-06T11:49:44;18.00;93.70
11214;DHT22;5664;48.606;13.456;2024-01-06T11:52:10;18.00;93.60
11214;DHT22;5664;48.606;13.456;2024-01-06T11:54:35;18.00;93.60
11214;DHT22;5664;48.606;13.456;2024-01-06T11:57:01;18.00;93.70
11214;DHT22;5664;48.606;13.456;2024-01-06T11:59:26;18.10;93.70
11214;DHT22;5664;48.606;13.456;2024-01-06T12:01:52;18.10;93.60
11214;DHT22;5664;48.606;13.456;2024-01-06T12:04:17;18.10;93.60
11214;DHT22;5664;48.606;13.456;2024-01-06T12:06:43;18.10;93.80
11214;DHT22;5664;48.606;13.456;2024-01-06T12:09:09;18.20;93.90
11214;DHT22;5664;48.606;13.456;2024-01-06T12:11:35;18.10;93.70
11214;DHT22;5664;48.606;13.456;2024-01-06T12:14:02;18.10;93.70
11214;DHT22;5664;48.606;13.456;2024-01-06T12:16:28;18.10;93.70
11214;DHT22;5664;48.606;13.456;2024-01-06T12:18:54;18.10;93.60
11214;DHT22;5664;48.606;13.456;2024-01-06T12:21:24;18.10;93.60
11214;DHT22;5664;48.606;13.456;2024-01-06T12:23:50;18.20;93.70
11214;DHT22;5664;48.606;13.456;2024-01-06T12:26:19;18.20;93.70
11214;DHT22;5664;48.606;13.456;2024-01-06T12:28:48;18.20;93.60
11214;DHT22;5664;48.606;13.456;2024-01-06T12:31:14;18.20;93.20
11214;DHT22;5664;48.606;13.456;2024-01-06T12:33:40;18.20;93.10
11214;DHT22;5664;48.606;13.456;2024-01-06T12:36:06;18.20;93.00
11214;DHT22;5664;48.606;13.456;2024-01-06T12:38:32;18.30;92.90
11214;DHT22;5664;48.606;13.456;2024-01-06T12:40:57;18.20;93.00
11214;DHT22;5664;48.606;13.456;2024-01-06T12:43:23;18.30;93.00
11214;DHT22;5664;48.606;13.456;2024-01-06T12:45:48;18.30;92.90
11214;DHT22;5664;48.606;13.456;2024-01-06T12:48:14;18.30;92.90
11214;DHT22;5664;48.606;13.456;2024-01-06T12:50:39;18.30;92.90
11214;DHT22;5664;48.606;13.456;2024-01-06T12:53:05;18.40;93.00
11214;DHT22;5664;48.606;13.456;2024-01-06T12:55:30;18.30;92.90
11214;DHT22;5664;48.606;13.456;2024-01-06T12:57:56;18.30;92.90
11214;DHT22;5664;48.606;13.456;2024-01-06T13:00:21;18.30;92.90
11214;DHT22;5664;48.606;13.456;2024-01-06T13:02:47;18.30;92.90
11214;DHT22;5664;48.606;13.456;2024-01-06T13:05:12;18.40;93.00
11214;DHT22;5664;48.606;13.456;2024-01-06T13:07:38;18.40;93.00
11214;DHT22;5664;48.606;13.456;2024-01-06T13:10:04;18.40;93.00
11214;DHT22;5664;48.606;13.456;2024-01-06T13:12:30;18.40;92.90
11214;DHT22;5664;48.606;13.456;2024-01-06T13:14:56;18.40;92.90
11214;DHT22;5664;48.606;13.456;2024-01-06T13:17:21;18.50;93.00
11214;DHT22;5664;48.606;13.456;2024-01-06T13:19:47;18.50;93.00
11214;DHT22;5664;48.606;13.456;2024-01-06T13:22:12;18.50;94.20
11214;DHT22;5664;48.606;13.456;2024-01-06T13:24:40;18.50;93.10
11214;DHT22;5664;48.606;13.456;2024-01-06T13:27:06;18.60;93.10
11214;DHT22;5664;48.606;13.456;2024-01-06T13:29:31;18.60;92.00
11214;DHT22;5664;48.606;13.456;2024-01-06T13:31:57;18.20;80.10
11214;DHT22;5664;48.606;13.456;2024-01-06T13:34:24;17.70;77.30
11214;DHT22;5664;48.606;13.456;2024-01-06T13:36:50;17.40;78.10
11214;DHT22;5664;48.606;13.456;2024-01-06T13:39:15;17.00;78.00
11214;DHT22;5664;48.606;13.456;2024-01-06T13:41:48;16.70;78.60
11214;DHT22;5664;48.606;13.456;2024-01-06T13:44:14;16.50;79.40
11214;DHT22;5664;48.606;13.456;2024-01-06T13:46:40;16.40;83.60
11214;DHT22;5664;48.606;13.456;2024-01-06T13:49:12;16.60;89.30
11214;DHT22;5664;48.606;13.456;2024-01-06T13:51:41;16.80;90.70
11214;DHT22;5664;48.606;13.456;2024-01-06T13:54:07;17.00;91.10
11214;DHT22;5664;48.606;13.456;2024-01-06T13:56:32;17.20;91.60
11214;DHT22;5664;48.606;13.456;2024-01-06T13:58:58;17.40;91.70
11214;DHT22;5664;48.606;13.456;2024-01-06T14:01:24;17.50;91.90
11214;DHT22;5664;48.606;13.456;2024-01-06T14:03:49;17.70;92.00
11214;DHT22;5664;48.606;13.456;2024-01-06T14:06:15;17.80;92.10
11214;DHT22;5664;48.606;13.456;2024-01-06T14:08:42;17.80;92.20
11214;DHT22;5664;48.606;13.456;2024-01-06T14:11:09;18.00;92.30
11214;DHT22;5664;48.606;13.456;2024-01-06T14:13:34;18.00;92.50
11214;DHT22;5664;48.606;13.456;2024-01-06T14:15:59;18.10;92.60
11214;DHT22;5664;48.606;13.456;2024-01-06T14:18:25;18.20;92.70
11214;DHT22;5664;48.606;13.456;2024-01-06T14:20:52;18.20;93.00
11214;DHT22;5664;48.606;13.456;2024-01-06T14:23:20;18.30;93.30
11214;DHT22;5664;48.606;13.456;2024-01-06T14:25:46;18.40;93.60
11214;DHT22;5664;48.606;13.456;2024-01-06T14:28:11;18.40;93.90
11214;DHT22;5664;48.606;13.456;2024-01-06T14:30:37;18.40;93.90
11214;DHT22;5664;48.606;13.456;2024-01-06T14:33:02;18.50;94.30
11214;DHT22;5664;48.606;13.456;2024-01-06T14:35:28;18.50;94.90
11214;DHT22;5664;48.606;13.456;2024-01-06T14:37:53;18.50;95.20
11214;DHT22;5664;48.606;13.456;2024-01-06T14:40:19;18.50;94.00
11214;DHT22;5664;48.606;13.456;2024-01-06T14:42:45;18.60;93.60
11214;DHT22;5664;48.606;13.456;2024-01-06T14:45:10;18.60;93.30
11214;DHT22;5664;48.606;13.456;2024-01-06T14:47:36;18.60;93.10
11214;DHT22;5664;48.606;13.456;2024-01-06T14:50:01;18.60;92.90
11214;DHT22;5664;48.606;13.456;2024-01-06T14:52:27;18.70;92.70
11214;DHT22;5664;48.606;13.456;2024-01-06T14:54:53;18.60;92.40
11214;DHT22;5664;48.606;13.456;2024-01-06T14:57:18;18.70;92.30
11214;DHT22;5664;48.606;13.456;2024-01-06T14:59:44;18.70;92.30
11214;DHT22;5664;48.606;13.456;2024-01-06T15:02:09;18.80;92.40
11214;DHT22;5664;48.606;13.456;2024-01-06T15:04:37;18.70;92.30
11214;DHT22;5664;48.606;13.456;2024-01-06T15:07:02;18.70;92.30
11214;DHT22;5664;48.606;13.456;2024-01-06T15:09:28;18.70;92.40
11214;DHT22;5664;48.606;13.456;2024-01-06T15:11:56;18.70;92.40
11214;DHT22;5664;48.606;13.456;2024-01-06T15:14:21;18.80;92.40
11214;DHT22;5664;48.606;13.456;2024-01-06T15:16:46;18.70;92.40
11214;DHT22;5664;48.606;13.456;2024-01-06T15:19:12;18.70;93.50
11214;DHT22;5664;48.606;13.456;2024-01-06T15:21:38;18.70;92.30
11214;DHT22;5664;48.606;13.456;2024-01-06T15:24:03;18.70;92.30
11214;DHT22;5664;48.606;13.456;2024-01-06T15:26:30;18.70;92.10
11214;DHT22;5664;48.606;13.456;2024-01-06T15:28:56;18.70;92.10